Latest Weather Observations for Condobolin Airport

IDN60801

Issued at 11:32 am EST Sunday 30 August 2015 (issued every 30 minutes, with the page automatically refreshed every 10 minutes)

About weather observations | Map of weather stations | Latest weather observations for NSW | Other Formats
Station Details ID: 050137 Name: CONDOBOLIN AIRPORT AWS Lat: -33.07 Lon: 147.21 Height: 192.6 m
Data from the previous 72 hours. | See also: Recent months at Condobolin Airport
Date/Time
EST
Temp
°C
App
Temp
°C
Dew
Point
Rel
Hum
%
Delta-T
°C
Wind Press
QNH
hPa
Press
MSL
hPa
Rain
since 9 am
mm
Dir
 
Spd
km/h
Gust
km/h
Spd
kts
Gust
kts
30/11:30am 8.9 5.2 6.2 83 1.2 SW 15 24 8 13 1022.9 1023.1 0.0
30/11:00am 8.5 5.2 6.5 87 0.9 SSW 13 17 7 9 1023.1 1023.4 0.0
30/10:30am 8.0 5.1 6.5 90 0.7 SW 11 17 6 9 1023.2 1023.5 0.0
30/10:00am 7.4 4.4 5.9 90 0.7 SSW 11 17 6 9 1023.3 1023.6 0.0
30/09:30am 7.4 4.0 5.7 89 0.8 SSW 13 17 7 9 1023.4 1023.7 0.0
30/09:00am 7.2 3.4 5.7 90 0.7 SSW 15 20 8 11 1023.3 1023.6 0.2
30/08:30am 5.9 2.7 5.0 94 0.4 SW 11 15 6 8 1023.2 1023.5 0.2
30/08:00am 4.7 1.7 4.1 96 0.3 WSW 9 13 5 7 1023.0 1023.2 0.2
30/07:30am 3.3 0.5 2.9 97 0.2 WSW 7 9 4 5 1022.8 1023.0 0.2
30/07:00am 1.6 -1.9 1.2 97 0.2 W 9 11 5 6 1022.4 1022.6 0.0
30/06:30am 1.3 -1.7 0.9 97 0.2 W 6 7 3 4 1022.2 1022.4 0.0
30/06:00am 1.1 -2.5 0.5 96 0.2 W 9 11 5 6 1022.0 1022.2 0.0
30/05:30am 1.4 -2.6 0.8 96 0.2 WNW 11 13 6 7 1021.9 1022.1 0.0
30/05:00am 1.6 -2.3 0.9 95 0.3 WNW 11 13 6 7 1021.9 1022.1 0.0
30/04:30am 1.9 -1.6 1.2 95 0.3 WNW 9 11 5 6 1022.0 1022.2 0.0
30/04:00am 1.9 -1.6 1.2 95 0.3 W 9 11 5 6 1022.1 1022.3 0.0
30/03:30am 2.1 -1.8 1.4 95 0.3 WNW 11 13 6 7 1022.2 1022.4 0.0
30/03:00am 2.2 -1.3 1.3 94 0.3 WNW 9 11 5 6 1022.5 1022.7 0.0
30/02:30am 2.3 -1.2 1.4 94 0.3 WNW 9 11 5 6 1022.8 1023.0 0.0
30/02:00am 2.2 -1.3 1.3 94 0.3 WNW 9 11 5 6 1023.0 1023.2 0.0
30/01:30am 2.2 -1.3 1.3 94 0.3 WNW 9 11 5 6 1023.4 1023.7 0.0
30/01:00am 2.0 -1.2 1.0 93 0.4 W 7 9 4 5 1023.8 1024.1 0.0
30/12:30am 2.2 -1.0 0.9 91 0.5 W 7 9 4 5 1024.1 1024.4 0.0
30/12:00am 3.0 -0.4 1.8 92 0.5 W 9 9 5 5 1024.3 1024.6 0.0
 
Date/Time
EST
Temp
°C
App
Temp
°C
Dew
Point
Rel
Hum
%
Delta-T
°C
Wind Press
QNH
hPa
Press
MSL
hPa
Rain
since 9 am
mm
Dir
 
Spd
km/h
Gust
km/h
Spd
kts
Gust
kts
29/11:30pm 3.1 -0.3 1.8 91 0.5 W 9 9 5 5 1024.5 1024.8 0.0
29/11:00pm 3.6 0.2 2.0 89 0.6 W 9 9 5 5 1024.5 1024.8 0.0
29/10:30pm 4.2 1.5 2.6 89 0.7 W 6 7 3 4 1024.4 1024.7 0.0
29/10:00pm 3.9 0.9 2.1 88 0.7 WNW 7 9 4 5 1024.5 1024.8 0.0
29/09:30pm 4.3 1.3 2.3 87 0.8 WNW 7 7 4 4 1024.5 1024.8 0.0
29/09:00pm 4.5 1.7 2.0 84 1.0 W 6 7 3 4 1024.3 1024.6 0.0
29/08:30pm 5.4 2.6 2.9 84 1.0 WSW 7 9 4 5 1024.1 1024.4 0.0
29/08:00pm 6.0 2.4 3.0 81 1.3 WSW 11 13 6 7 1023.8 1024.1 0.0
29/07:30pm 6.6 3.4 3.0 78 1.5 WSW 9 13 5 7 1023.3 1023.6 0.0
29/07:00pm 7.3 3.7 3.0 74 1.8 SW 11 13 6 7 1023.3 1023.6 0.0
29/06:30pm 8.9 5.1 3.7 70 2.3 SW 13 15 7 8 1023.1 1023.4 0.0
29/06:00pm 10.3 5.7 3.8 64 2.9 SW 17 24 9 13 1022.8 1023.0 0.0
29/05:30pm 11.0 6.4 3.5 60 3.3 SW 17 20 9 11 1022.4 1022.6 0.0
29/05:00pm 12.7 7.8 4.2 56 3.9 WSW 19 26 10 14 1022.2 1022.4 0.0
29/04:30pm 13.6 9.8 6.0 60 3.6 SW 15 19 8 10 1022.3 1022.5 0.0
29/04:00pm 12.9 8.0 5.1 59 3.6 SSW 20 28 11 15 1022.5 1022.7 0.0
29/03:30pm 13.6 8.2 4.5 54 4.2 SW 22 32 12 17 1022.5 1022.7 0.0
29/03:00pm 13.6 8.7 5.0 56 4.0 SW 20 26 11 14 1022.6 1022.8 0.0
29/02:30pm 13.5 8.5 4.4 54 4.2 WSW 20 24 11 13 1022.6 1022.8 0.0
29/02:00pm 14.9 10.1 5.7 54 4.4 SW 20 28 11 15 1022.9 1023.1 0.0
29/01:30pm 13.8 9.2 5.4 57 4.0 SW 19 26 10 14 1023.4 1023.7 0.0
29/01:00pm 13.3 8.4 5.0 57 3.9 SW 20 28 11 15 1024.0 1024.3 0.0
29/12:30pm 14.3 9.9 6.4 59 3.8 SW 19 24 10 13 1024.5 1024.8 0.0
29/12:00pm 13.6 9.9 6.5 62 3.4 SW 15 24 8 13 1024.7 1025.0 0.0
29/11:30am 13.6 8.9 6.2 61 3.6 WSW 20 28 11 15 1025.1 1025.3 0.0
29/11:00am 13.1 9.2 7.3 68 2.8 SW 17 24 9 13 1025.5 1025.7 0.0
29/10:30am 12.4 9.0 7.5 72 2.4 SW 15 24 8 13 1025.6 1025.8 0.0
29/10:00am 11.8 8.4 7.5 75 2.1 SW 15 20 8 11 1025.7 1025.9 0.0
29/09:30am 10.7 7.8 6.6 76 1.9 W 11 17 6 9 1025.6 1025.8 0.0
29/09:00am 9.9 6.7 6.8 81 1.5 W 13 15 7 8 1025.6 1025.8 0.0
29/08:30am 8.8 6.1 7.4 91 0.7 W 11 15 6 8 1025.4 1025.6 0.0
29/08:00am 7.2 5.2 7.1 99 0.0 W 7 9 4 5 1025.1 1025.3 0.0
29/07:30am 5.6 3.3 5.5 99 0.0 WNW 7 9 4 5 1025.0 1025.2 0.0
29/07:00am 3.1 -0.1 3.0 99 0.0 WNW 9 9 5 5 1024.6 1024.9 0.0
29/06:30am 2.6 -0.7 2.5 99 0.0 WNW 9 11 5 6 1024.4 1024.7 0.0
29/06:00am 2.5 0.9 2.2 98 0.1 CALM 0 0 0 0 1024.2 1024.5 0.0
29/05:30am 4.0 1.5 3.9 99 0.0 WNW 6 7 3 4 1024.3 1024.6 0.0
29/05:00am 4.1 1.1 4.0 99 0.0 WNW 9 11 5 6 1024.1 1024.4 0.0
29/04:30am 4.1 0.7 4.0 99 0.0 NW 11 13 6 7 1024.0 1024.3 0.0
29/04:00am 4.4 1.4 4.3 99 0.0 WNW 9 11 5 6 1024.1 1024.4 0.0
29/03:30am 4.8 1.9 4.7 99 0.0 WNW 9 9 5 5 1023.9 1024.2 0.0
29/03:00am 4.6 2.0 4.3 98 0.1 WNW 7 9 4 5 1024.2 1024.5 0.0
29/02:30am 4.5 1.8 3.9 96 0.3 W 7 9 4 5 1024.3 1024.6 0.0
29/02:00am 5.5 3.1 5.1 97 0.2 WSW 7 7 4 4 1024.5 1024.8 0.0
29/01:30am 5.4 2.9 4.5 94 0.4 W 7 7 4 4 1024.8 1025.1 0.0
29/01:00am 6.4 4.1 5.5 94 0.4 W 7 9 4 5 1024.8 1025.1 0.0
29/12:30am 6.9 4.7 6.0 94 0.4 W 7 9 4 5 1024.6 1024.9 0.0
29/12:00am 7.3 5.1 6.2 93 0.5 W 7 9 4 5 1024.7 1025.0 0.0
 
Date/Time
EST
Temp
°C
App
Temp
°C
Dew
Point
Rel
Hum
%
Delta-T
°C
Wind Press
QNH
hPa
Press
MSL
hPa
Rain
since 9 am
mm
Dir
 
Spd
km/h
Gust
km/h
Spd
kts
Gust
kts
28/11:30pm 8.6 6.8 7.8 95 0.4 WSW 7 9 4 5 1024.8 1025.1 0.0
28/11:00pm 9.1 8.8 8.8 98 0.1 CALM 0 0 0 0 1024.8 1025.1 0.0
28/10:30pm 9.2 8.6 9.1 99 0.0 SW 2 7 1 4 1025.0 1025.2 0.0
28/10:00pm 8.1 5.9 8.0 99 0.0 NW 9 11 5 6 1025.0 1025.2 0.0
28/09:30pm 7.5 6.8 7.1 97 0.2 CALM 0 0 0 0 1024.8 1025.1 0.0
28/09:00pm 7.7 7.1 7.3 97 0.2 CALM 0 0 0 0 1024.7 1025.0 0.0
28/08:30pm 7.7 7.1 7.3 97 0.2 CALM 0 6 0 3 1024.5 1024.8 0.0
28/08:00pm 8.1 6.3 7.8 98 0.1 ENE 7 9 4 5 1024.3 1024.6 0.0
28/07:30pm 7.6 6.8 6.4 92 0.6 CALM 0 0 0 0 1024.2 1024.5 0.0
28/07:00pm 8.1 7.1 5.7 85 1.1 CALM 0 0 0 0 1024.0 1024.3 0.0
28/06:30pm 10.3 9.8 7.7 84 1.3 CALM 0 0 0 0 1023.7 1024.0 0.0
28/06:00pm 11.5 9.8 8.4 81 1.5 SW 7 9 4 5 1023.6 1023.9 0.0
28/05:30pm 12.6 10.1 8.3 75 2.2 SW 11 13 6 7 1023.4 1023.7 0.0
28/05:00pm 13.3 10.5 8.6 73 2.4 SW 13 17 7 9 1023.3 1023.6 0.0
28/04:30pm 13.6 10.3 8.2 70 2.7 SW 15 20 8 11 1023.1 1023.4 0.0
28/04:00pm 13.7 10.0 8.1 69 2.8 SW 17 20 9 11 1023.0 1023.2 0.0
28/03:30pm 14.2 11.4 8.4 68 2.9 SW 13 19 7 10 1023.0 1023.2 0.0
28/03:00pm 14.3 10.4 8.5 68 2.9 SW 19 24 10 13 1022.9 1023.1 0.0
28/02:30pm 14.1 9.9 8.1 67 3.0 WSW 20 26 11 14 1022.9 1023.1 0.0
28/02:00pm 14.4 10.2 8.1 66 3.2 SW 20 28 11 15 1023.0 1023.2 0.0
28/01:30pm 15.0 10.8 9.6 70 2.8 SW 22 28 12 15 1023.1 1023.4 0.0
28/01:00pm 14.3 10.0 9.3 72 2.6 WSW 22 28 12 15 1023.4 1023.7 0.0
28/12:30pm 12.9 8.8 8.6 75 2.2 WSW 20 26 11 14 1023.9 1024.2 0.0
28/12:00pm 13.0 8.8 8.1 72 2.4 WSW 20 28 11 15 1024.2 1024.5 0.0
28/11:30am 12.2 9.1 8.7 79 1.8 SW 15 22 8 12 1024.7 1025.0 0.0
28/11:00am 11.5 7.9 8.4 81 1.5 WSW 17 22 9 12 1025.1 1025.3 0.0
28/10:30am 10.5 7.2 8.1 85 1.2 WSW 15 20 8 11 1025.0 1025.2 0.0
28/10:00am 9.9 6.1 7.7 86 1.1 WSW 17 22 9 12 1024.7 1025.0 0.0
28/09:30am 10.1 6.0 7.9 86 1.1 SW 19 28 10 15 1024.6 1024.9 0.0
28/09:00am 9.4 6.0 7.8 90 0.8 WSW 15 20 8 11 1024.5 1024.8 8.8
28/08:30am 8.8 5.7 7.4 91 0.7 W 13 19 7 10 1024.2 1024.5 8.8
28/08:00am 7.7 4.2 7.0 95 0.3 WNW 15 20 8 11 1024.0 1024.3 8.8
28/07:30am 7.1 3.4 6.5 96 0.3 WNW 15 19 8 10 1023.7 1024.0 8.8
28/07:00am 6.3 3.3 6.0 98 0.1 WNW 11 17 6 9 1023.4 1023.7 8.8
28/06:30am 5.9 2.4 5.5 97 0.2 W 13 17 7 9 1023.0 1023.2 8.8
28/06:00am 5.9 2.0 5.5 97 0.2 WNW 15 20 8 11 1022.7 1022.9 8.8
28/05:30am 5.8 2.3 5.5 98 0.1 W 13 15 7 8 1022.4 1022.6 8.8
28/05:00am 5.7 2.6 5.4 98 0.1 WNW 11 13 6 7 1022.2 1022.4 8.8
28/04:30am 5.5 2.3 5.2 98 0.1 WNW 11 15 6 8 1022.0 1022.2 8.8
28/04:00am 5.4 2.2 5.0 97 0.2 NW 11 13 6 7 1021.7 1021.9 8.8
28/03:30am 5.9 2.8 5.5 97 0.2 WNW 11 15 6 8 1021.7 1021.9 8.8
28/03:00am 5.3 2.4 4.4 94 0.4 WNW 9 13 5 7 1021.8 1022.0 8.8
28/02:30am 5.9 3.5 5.2 95 0.3 W 7 11 4 6 1022.0 1022.2 8.8
28/02:00am 5.5 2.2 4.6 94 0.4 WNW 11 13 6 7 1022.1 1022.3 8.8
28/01:30am 5.9 3.1 5.2 95 0.3 WNW 9 11 5 6 1022.2 1022.4 8.6
28/01:00am 6.0 2.5 5.4 96 0.3 WNW 13 15 7 8 1022.3 1022.5 8.6
28/12:30am 6.1 2.6 5.5 96 0.3 NW 13 15 7 8 1022.4 1022.6 8.6
28/12:00am 6.4 3.3 5.5 94 0.4 WNW 11 11 6 6 1022.5 1022.7 8.6
 
Date/Time
EST
Temp
°C
App
Temp
°C
Dew
Point
Rel
Hum
%
Delta-T
°C
Wind Press
QNH
hPa
Press
MSL
hPa
Rain
since 9 am
mm
Dir
 
Spd
km/h
Gust
km/h
Spd
kts
Gust
kts
27/11:30pm 6.6 3.9 5.6 93 0.4 WNW 9 11 5 6 1022.5 1022.7 8.6
27/11:00pm 6.6 3.9 5.4 92 0.5 WNW 9 11 5 6 1022.6 1022.8 8.6
27/10:30pm 7.4 4.4 5.9 90 0.7 W 11 15 6 8 1022.6 1022.8 8.6
27/10:00pm 7.5 4.2 6.6 94 0.4 WNW 13 17 7 9 1022.6 1022.8 8.6
27/09:30pm 7.2 3.9 6.3 94 0.4 NW 13 15 7 8 1022.7 1022.9 8.6
27/09:00pm 7.5 4.9 6.3 92 0.5 WNW 9 11 5 6 1022.6 1022.8 8.6
27/08:30pm 8.0 5.4 6.1 88 0.9 WSW 9 11 5 6 1022.4 1022.6 8.6
27/08:00pm 8.3 6.1 6.3 87 0.9 WNW 7 9 4 5 1022.0 1022.2 8.6
27/07:30pm 9.2 6.7 6.6 84 1.2 WSW 9 11 5 6 1021.9 1022.1 8.6
27/07:00pm 10.0 6.8 6.9 81 1.5 SW 13 15 7 8 1021.5 1021.7 8.6
27/06:30pm 10.3 7.5 6.8 79 1.7 WSW 11 13 6 7 1021.1 1021.3 8.6
27/06:00pm 11.8 7.8 6.7 71 2.4 WSW 17 22 9 12 1020.7 1020.9 8.6
27/05:30pm 13.0 9.7 7.9 71 2.5 W 15 22 8 12 1020.2 1020.4 8.6
27/05:00pm 13.5 9.7 9.0 74 2.3 W 19 24 10 13 1019.9 1020.1 8.6
27/04:30pm 13.6 8.6 8.2 70 2.7 W 24 30 13 16 1019.9 1020.1 8.6
27/04:00pm 14.1 9.5 8.3 68 2.9 W 22 28 12 15 1019.7 1019.9 8.6
27/03:30pm 13.7 9.0 7.9 68 2.9 W 22 28 12 15 1019.7 1019.9 8.6
27/03:00pm 13.4 10.3 8.7 73 2.4 WNW 15 19 8 10 1019.6 1019.8 8.6
27/02:30pm 11.5 7.3 8.4 81 1.5 W 20 26 11 14 1019.8 1020.0 8.6
27/02:00pm 10.3 5.3 9.4 94 0.5 WSW 26 35 14 19 1020.6 1020.8 8.6
27/01:44pm 8.7 -0.3 7.3 91 0.7 W 44 65 24 35 1020.8 1021.0 8.4
27/01:38pm 8.9 -0.7 6.3 84 1.2 W 46 74 25 40 1020.7 1020.9 7.2
27/01:33pm 11.0 4.4 6.2 72 2.3 W 30 72 16 39 1020.2 1020.4 6.4
27/01:30pm 14.0 10.0 9.2 73 2.5 W 20 30 11 16 1020.1 1020.3 6.4
27/01:00pm 15.3 12.5 11.3 77 2.2 WNW 17 24 9 13 1020.0 1020.2 6.4
27/12:30pm 13.8 11.8 10.0 78 2.0 WNW 11 15 6 8 1020.4 1020.6 6.4
27/12:00pm 13.1 10.8 11.7 91 0.8 WSW 15 20 8 11 1020.8 1021.0 6.4

Other Formats:

Comma delimited format used in spreadsheet applications
http://www.bom.gov.au/fwo/IDN60801/IDN60801.95708.axf

JavaScript Object Notation format (JSON) in row-major order
http://www.bom.gov.au/fwo/IDN60801/IDN60801.95708.json